Latest Coastal Weather Observations for Ceduna

IDS60701

Issued at 9:11 pm CDT Friday 20 October 2017 (issued every 10 minutes, with the page automatically refreshed every 10 minutes)

About coastal observations | Map of coastal stations | Coastal observations for SA | Marine services | Other Formats
Station Details ID: 018012 Name: CEDUNA AMO Lat: -32.13 Lon: 133.70 Height: 15.3 m
Data from the previous 72 hours. | See also: Recent months at Ceduna
Date/Time
CDT
Temp
°C
Wind Pressure Rain since
9am
mm
Weather Cloud Vis
km
Sea
Height
m
Swell
Dir  Spd
kts
Gust
kts
hPa Trend Height
m
Period
s
Dir
20/09:00pm 14.7 SSE 20 28 1029.9 S 0.0 - Clear 10 - - - -
20/08:30pm 14.7 SSE 16 22 1029.7 - 0.0 - - 10 - - - -
20/08:00pm 14.9 SSE 17 23 1029.5 - 0.0 - - 10 - - - -
20/07:30pm 15.3 S 19 25 1029.3 - 0.0 - - 10 - - - -
20/07:00pm 15.9 S 18 25 1029.2 - 0.0 - - 10 - - - -
20/06:30pm 16.8 S 20 26 1028.9 - 0.0 - - 10 - - - -
20/06:00pm 17.0 S 20 27 1028.7 F 0.0 - - 10 - - - -
20/05:30pm 17.4 S 20 27 1028.8 - 0.0 - - 10 - - - -
20/05:00pm 17.9 S 19 24 1028.9 - 0.0 - - 10 - - - -
20/04:30pm 18.1 S 19 24 1028.7 - 0.0 - - 10 - - - -
20/04:00pm 18.6 S 19 24 1028.9 - 0.0 - - 10 - - - -
20/03:30pm 19.3 S 17 22 1029.1 - 0.0 - - 10 - - - -
20/03:00pm 19.5 S 17 20 1029.2 F 0.0 - - 10 - - - -
20/02:30pm 19.2 S 15 22 1029.6 - 0.0 - - 10 - - - -
20/02:00pm 19.9 S 14 21 1030.0 - 0.0 - - 10 - - - -
20/01:30pm 19.3 S 15 21 1030.3 - 0.0 - - 10 - - - -
20/01:00pm 19.6 S 15 19 1030.5 - 0.0 - - 10 - - - -
20/12:30pm 19.2 SSE 14 19 1031.0 - 0.0 - Partly cloudy 10 - - - -
20/12:00pm 19.0 SSE 13 20 1031.4 F 0.0 - Partly cloudy 10 - - - -
20/11:30am 18.4 SE 11 15 1031.7 - 0.0 - Cloudy 10 - - - -
20/11:00am 17.4 SE 9 14 1032.0 - 0.0 - Cloudy 10 - - - -
20/10:30am 16.8 SE 11 15 1032.1 - 0.0 - Cloudy 10 - - - -
20/10:00am 16.7 SE 13 22 1031.9 - 0.0 - Cloudy 10 - - - -
20/09:30am 17.7 SE 11 17 1031.8 - 0.0 - Cloudy 10 - - - -
20/09:00am 15.8 SE 10 14 1031.7 R 0.0 - Partly cloudy 10 - - - -
20/08:30am 15.2 ESE 8 9 1031.6 - 0.0 - Partly cloudy 10 - - - -
20/08:00am 13.3 ESE 7 9 1031.2 - 0.0 - Partly cloudy 10 - - - -
20/07:30am 13.3 ESE 7 9 1030.7 - 0.0 - Cloudy 10 - - - -
20/07:00am 13.2 ESE 7 8 1030.3 - 0.0 - Partly cloudy 10 - - - -
20/06:30am 14.0 SE 10 14 1029.9 - 0.0 - Partly cloudy 10 - - - -
20/06:00am 14.6 SSE 11 16 1029.6 R 0.0 - Cloudy 10 - - - -
20/05:30am 14.0 SSE 11 15 1029.3 - 0.0 - Partly cloudy 10 - - - -
20/05:00am 14.4 SSE 12 16 1029.1 - 0.0 - Partly cloudy 10 - - - -
20/04:30am 13.5 SE 10 15 1029.0 - 0.0 - Partly cloudy 10 - - - -
20/04:00am 13.8 SSE 13 17 1029.1 - 0.0 - Partly cloudy 10 - - - -
20/03:30am 14.0 SE 12 16 1029.1 - 0.0 - Partly cloudy 10 - - - -
20/03:00am 14.2 SSE 13 18 1029.1 R 0.0 - Mostly clear 10 - - - -
20/02:30am 14.0 SSE 11 15 1029.1 - 0.0 - Partly cloudy 10 - - - -
20/02:00am 14.3 SSE 13 19 1029.4 - 0.0 - Partly cloudy 10 - - - -
20/01:30am 14.7 SSE 11 15 1029.7 - 0.0 - Cloudy 10 - - - -
20/01:00am 15.3 S 14 20 1029.6 - 0.0 - Cloudy 10 - - - -
20/12:30am 15.5 SSE 12 16 1029.6 - 0.0 - Cloudy 10 - - - -
20/12:00am 15.6 SSE 12 19 1029.5 R 0.0 - Cloudy 10 - - - -
 
Date/Time
CDT
Temp
°C
Wind Pressure Rain since
9am
mm
Weather Cloud Vis
km
Sea
Height
m
Swell
Dir  Spd
kts
Gust
kts
hPa Trend Height
m
Period
s
Dir
19/11:30pm 15.2 SSE 12 16 1029.5 - 0.0 - Cloudy 10 - - - -
19/11:00pm 15.5 S 13 19 1029.4 - 0.0 - Cloudy 10 - - - -
19/10:30pm 15.6 SSE 14 17 1029.2 - 0.0 - Cloudy 10 - - - -
19/10:00pm 15.2 SSE 13 17 1029.3 - 0.0 - Partly cloudy 10 - - - -
19/09:30pm 15.7 S 13 19 1028.9 - 0.0 - Partly cloudy 10 - - - -
19/09:00pm 15.8 S 13 18 1028.5 R 0.0 - Mostly cloudy 10 - - - -
19/08:30pm 15.8 S 14 19 1028.1 - 0.0 - Partly cloudy 10 - - - -
19/08:00pm 15.8 S 14 18 1027.7 - 0.0 - Partly cloudy 10 - - - -
19/07:30pm 16.3 S 14 21 1027.1 - 0.0 - Partly cloudy 10 - - - -
19/07:00pm 16.2 S 16 19 1026.9 - 0.0 - Partly cloudy 10 - - - -
19/06:30pm 16.5 S 16 20 1026.7 - 0.0 - Partly cloudy 10 - - - -
19/06:00pm 16.9 S 17 21 1026.4 R 0.0 - Partly cloudy 10 - - - -
19/05:30pm 17.5 S 16 21 1026.0 - 0.0 - Partly cloudy 10 - - - -
19/05:00pm 18.2 SSW 17 23 1025.5 - 0.0 - Partly cloudy 10 - - - -
19/04:30pm 18.5 SSW 17 23 1025.6 - 0.0 - Partly cloudy 10 - - - -
19/04:00pm 18.9 S 17 23 1025.4 - 0.0 - Partly cloudy 10 - - - -
19/03:30pm 18.6 SSW 17 22 1025.5 - 0.0 - Partly cloudy 10 - - - -
19/03:00pm 19.7 S 16 21 1025.7 R 0.0 - Mostly clear 10 - - - -
19/02:30pm 19.8 SSW 16 24 1025.7 - 0.0 - Partly cloudy 10 - - - -
19/02:00pm 19.4 S 16 22 1025.6 - 0.0 - - 10 - - - -
19/01:30pm 18.5 SSW 15 21 1025.5 - 0.0 - - 10 - - - -
19/01:00pm 19.1 S 14 20 1025.3 - 0.0 - - 10 - - - -
19/12:30pm 18.2 S 14 20 1025.3 - 0.0 - - 10 - - - -
19/12:00pm 18.3 S 15 20 1025.2 R 0.0 - Mostly clear 10 - - - -
19/11:30am 18.3 S 14 18 1025.0 - 0.0 - Partly cloudy 10 - - - -
19/11:00am 17.9 S 13 18 1025.2 - 0.0 - Partly cloudy 10 - - - -
19/10:30am 17.9 S 14 19 1025.0 - 0.0 - Partly cloudy 10 - - - -
19/10:00am 17.6 S 13 17 1024.6 - 0.0 - Partly cloudy 10 - - - -
19/09:30am 17.2 S 14 19 1024.2 - 0.0 - Partly cloudy 10 - - - -
19/09:00am 17.1 S 15 19 1023.8 R 0.0 - Partly cloudy 10 - - - -
19/08:30am 16.4 S 13 17 1023.6 - 0.0 - Partly cloudy 10 - - - -
19/08:00am 15.8 S 10 14 1023.4 - 0.0 - Partly cloudy 10 - - - -
19/07:30am 15.4 S 11 13 1023.1 - 0.0 - Partly cloudy 10 - - - -
19/07:00am 15.5 S 9 12 1022.8 - 0.0 - Partly cloudy 10 - - - -
19/06:30am 15.6 SSW 11 18 1022.5 - 0.0 - Partly cloudy 10 - - - -
19/06:00am 15.7 SSW 12 17 1022.0 R 0.0 - Cloudy 10 - - - -
19/05:30am 15.8 SSW 11 17 1021.3 - 0.0 - Partly cloudy 10 - - - -
19/05:00am 16.0 SSW 11 13 1020.8 - 0.0 - Partly cloudy 10 - - - -
19/04:30am 15.8 S 13 16 1019.2 - 0.0 - - 10 - - - -
19/04:00am 16.1 S 12 17 1019.1 - 0.0 - - 10 - - - -
19/03:30am 16.3 S 11 17 1018.8 - 0.0 - Partly cloudy 10 - - - -
19/03:00am 16.6 SSW 13 18 1018.7 R 0.0 - Cloudy 10 - - - -
19/02:30am 16.8 SW 14 19 1019.6 - 0.0 - Partly cloudy 10 - - - -
19/02:00am 16.9 SSW 12 15 1018.8 - 0.0 - - 10 - - - -
19/01:30am 16.9 SSW 11 15 1018.7 - 0.0 - - 10 - - - -
19/01:00am 17.0 SSW 13 20 1018.2 - 0.0 - - 10 - - - -
19/12:30am 17.1 SSW 12 17 1018.7 - 0.0 - Partly cloudy 10 - - - -
19/12:00am 17.2 S 11 15 1018.2 R 0.0 - Cloudy 10 - - - -
 
Date/Time
CDT
Temp
°C
Wind Pressure Rain since
9am
mm
Weather Cloud Vis
km
Sea
Height
m
Swell
Dir  Spd
kts
Gust
kts
hPa Trend Height
m
Period
s
Dir
18/11:30pm 17.4 SSW 12 17 1017.7 - 0.0 - - 10 - - - -
18/11:00pm 17.5 SSW 15 21 1017.7 - 0.0 - - 10 - - - -
18/10:30pm 17.7 SW 15 18 1017.3 - 0.0 - - 10 - - - -
18/10:00pm 18.0 SW 15 20 1016.7 - 0.0 - - 10 - - - -
18/09:30pm 18.6 SW 18 23 1015.5 - 0.0 - - 10 - - - -
18/09:00pm 18.8 WSW 16 21 1014.7 R 0.0 - Cloudy 10 - - - -
18/08:30pm 19.7 WSW 9 13 1014.0 - 0.0 - Partly cloudy 10 - - - -
18/08:00pm 21.4 W 11 15 1014.8 - 0.0 - Cloudy 10 - - - -
18/07:30pm 21.5 W 14 21 1014.2 - 0.0 - Partly cloudy 10 - - - -
18/07:00pm 25.3 WNW 10 18 1013.0 - 0.0 - Partly cloudy 10 - - - -
18/06:30pm 25.9 NW 6 10 1011.3 - 0.0 - Partly cloudy 10 - - - -
18/06:00pm 27.0 WNW 14 20 1011.4 F 0.0 - Cloudy 10 - - - -
18/05:30pm 28.1 NNW 10 14 1010.6 - 0.0 - Partly cloudy 10 - - - -
18/05:00pm 26.5 N 7 9 1010.7 - 0.0 - Partly cloudy 10 - - - -
18/04:30pm 26.3 ENE 2 4 1010.7 - 0.0 - Partly cloudy 10 - - - -
18/04:00pm 26.0 S 6 8 1011.1 - 0.0 - Partly cloudy 10 - - - -
18/03:30pm 24.8 SW 8 11 1011.5 - 0.0 - Partly cloudy 10 - - - -
18/03:00pm 24.4 SSW 10 12 1011.7 R 0.0 - Mostly cloudy 10 - - - -
18/02:30pm 24.9 SSW 12 16 1011.5 - 0.0 - - 10 - - - -
18/02:00pm 26.4 SSW 13 16 1011.4 - 0.0 - - 10 - - - -
18/01:30pm 27.9 SSW 13 16 1011.5 - 0.0 - - 10 - - - -
18/01:00pm 28.9 SW 12 15 1011.6 - 0.0 - - 10 - - - -
18/12:30pm 29.2 SSW 12 15 1011.6 - 0.0 - - 10 - - - -
18/12:18pm 28.9 SSW 14 20 1011.7 - 0.0 - - 10 - - - -
18/12:00pm 34.3 N 14 20 1011.9 R 0.0 - - 10 - - - -
18/11:30am 33.7 NNW 12 18 1012.2 - 0.0 - - 10 - - - -
18/11:00am 31.9 N 14 21 1012.3 - 0.0 - - 10 - - - -
18/10:30am 32.1 NNW 17 23 1012.2 - 0.0 - - 10 - - - -
18/10:00am 31.6 N 13 17 1012.2 - 0.0 - - 10 - - - -
18/09:30am 30.1 N 16 22 1012.1 - 0.0 - - 10 - - - -
18/09:00am 28.9 N 16 23 1011.6 R 0.0 - - 10 - - - -
18/08:30am 27.7 N 13 19 1011.3 - 0.0 - - 10 - - - -
18/08:00am 26.1 N 9 13 1011.2 - 0.0 - - 10 - - - -
18/07:30am 24.9 NNE 12 15 1010.7 - 0.0 - - 10 - - - -
18/07:00am 24.7 NNE 12 16 1010.5 - 0.0 - - 10 - - - -
18/06:30am 25.2 NNE 13 17 1009.9 - 0.0 - - 10 - - - -
18/06:00am 25.8 NNE 14 20 1009.6 R 0.0 - Mostly clear 10 - - - -
18/05:30am 26.4 NNE 15 21 1009.2 - 0.0 - - 10 - - - -
18/05:00am 26.6 NNE 16 21 1008.8 - 0.0 - - 10 - - - -
18/04:30am 26.6 NNE 15 21 1008.9 - 0.0 - - 10 - - - -
18/04:00am 27.0 NNE 15 19 1009.1 - 0.0 - - 10 - - - -
18/03:30am 26.9 NNE 15 20 1009.2 - 0.0 - - 10 - - - -
18/03:00am 27.0 NNE 15 19 1009.4 R 0.0 - Mostly cloudy 10 - - - -
18/02:30am 27.4 NNE 16 21 1009.5 - 0.0 - - 10 - - - -
18/02:00am 27.2 NE 16 20 1009.6 - 0.0 - - 10 - - - -
18/01:30am 27.4 NE 17 23 1009.7 - 0.0 - - 10 - - - -
18/01:00am 27.9 NE 16 20 1009.9 - 0.0 - - 10 - - - -
18/12:30am 28.2 NE 15 20 1009.9 - 0.0 - - 10 - - - -
18/12:00am 27.5 NE 14 18 1009.9 R 0.0 - Cloudy 10 - - - -
 
Date/Time
CDT
Temp
°C
Wind Pressure Rain since
9am
mm
Weather Cloud Vis
km
Sea
Height
m
Swell
Dir  Spd
kts
Gust
kts
hPa Trend Height
m
Period
s
Dir
17/11:30pm 26.3 NE 12 15 1010.0 - 0.0 - - 10 - - - -
17/11:00pm 26.1 NE 12 15 1010.0 - 0.0 - - 10 - - - -
17/10:30pm 26.3 NE 11 13 1010.0 - 0.0 - - 10 - - - -
17/10:00pm 26.3 NE 10 12 1009.9 - 0.0 - - 10 - - - -
17/09:30pm 27.4 NE 10 11 1009.6 - 0.0 - - 10 - - - -

Other Formats:

Comma delimited format used in spreadsheet applications
http://www.bom.gov.au/fwo/IDS60701/IDS60701.94653.axf

JavaScript Object Notation format (JSON) in row-major order
http://www.bom.gov.au/fwo/IDS60701/IDS60701.94653.json